createdAt,value
2022-10-28T00:01:05.499Z,3.67
2022-10-28T00:03:32.967Z,3.20
2022-10-28T00:06:05.087Z,3.20
2022-10-28T00:08:32.180Z,3.65
2022-10-28T00:11:12.636Z,3.45
2022-10-28T00:13:39.887Z,3.47
2022-10-28T00:16:16.138Z,3.30
2022-10-28T00:18:43.356Z,3.30
2022-10-28T00:21:16.295Z,3.45
2022-10-28T00:23:43.312Z,3.40
2022-10-28T00:26:22.265Z,3.88
2022-10-28T00:28:52.432Z,3.95
2022-10-28T00:31:20.965Z,3.95
2022-10-28T00:33:47.824Z,4.22
2022-10-28T00:36:14.503Z,4.40
2022-10-28T00:38:42.695Z,4.15
2022-10-28T00:41:11.175Z,4.13
2022-10-28T00:43:41.657Z,4.30
2022-10-28T00:46:42.500Z,4.60
2022-10-28T00:49:23.231Z,3.28
2022-10-28T00:51:54.934Z,3.95
2022-10-28T00:54:22.536Z,2.80
2022-10-28T00:56:52.696Z,3.40
2022-10-28T00:59:24.550Z,2.97
2022-10-28T01:01:51.442Z,2.97
2022-10-28T01:04:19.076Z,3.00
2022-10-28T01:06:47.178Z,2.53
2022-10-28T01:09:14.150Z,2.28
2022-10-28T01:11:54.725Z,2.10
2022-10-28T01:14:27.654Z,1.98
2022-10-28T01:17:06.167Z,2.40
2022-10-28T01:20:10.080Z,2.67
2022-10-28T01:22:57.482Z,2.40
2022-10-28T01:25:35.811Z,2.45
2022-10-28T01:28:46.180Z,2.33
2022-10-28T01:31:50.069Z,2.03
2022-10-28T01:34:31.441Z,2.67
2022-10-28T01:37:14.220Z,2.33
2022-10-28T01:40:20.391Z,2.70
2022-10-28T01:43:10.718Z,2.75
2022-10-28T01:45:48.294Z,2.45
2022-10-28T01:48:41.532Z,1.90
2022-10-28T01:51:19.371Z,2.35
2022-10-28T01:53:49.485Z,4.60
2022-10-28T01:56:21.207Z,2.40
2022-10-28T01:58:49.490Z,1.90
2022-10-28T02:01:17.392Z,2.10
2022-10-28T02:03:47.283Z,2.10
2022-10-28T02:06:20.291Z,2.10
2022-10-28T02:08:59.382Z,2.30
2022-10-28T02:11:46.604Z,2.30
2022-10-28T02:14:48.214Z,2.58
2022-10-28T02:17:36.960Z,2.40
2022-10-28T02:20:28.274Z,2.22
2022-10-28T02:23:16.963Z,2.35
2022-10-28T02:26:01.737Z,1.70
2022-10-28T02:28:42.282Z,1.60
2022-10-28T02:31:38.323Z,1.58
2022-10-28T02:34:10.448Z,1.65
2022-10-28T02:36:42.096Z,1.85
2022-10-28T02:39:08.779Z,1.60
2022-10-28T02:41:46.204Z,1.77
2022-10-28T02:44:18.519Z,1.90
2022-10-28T02:49:14.687Z,2.10
2022-10-28T02:52:07.988Z,1.98
2022-10-28T02:55:07.267Z,2.33
2022-10-28T02:57:36.158Z,2.67
2022-10-28T03:00:08.307Z,1.98
2022-10-28T03:02:35.023Z,2.33
2022-10-28T03:05:02.541Z,2.42
2022-10-28T03:07:29.101Z,2.38
2022-10-28T03:09:55.666Z,2.17
2022-10-28T03:12:22.215Z,2.45
2022-10-28T03:14:48.815Z,2.42
2022-10-28T03:17:15.372Z,2.42
2022-10-28T03:19:41.932Z,2.50
2022-10-28T03:22:08.680Z,3.08
2022-10-28T03:24:35.404Z,2.63
2022-10-28T03:27:01.971Z,3.00
2022-10-28T03:29:28.513Z,3.50
2022-10-28T03:31:55.132Z,3.80
2022-10-28T03:34:21.701Z,4.25
2022-10-28T03:36:48.246Z,4.68
2022-10-28T03:39:14.903Z,5.00
2022-10-28T03:41:41.543Z,5.25
2022-10-28T03:44:08.130Z,5.50
2022-10-28T03:46:36.102Z,4.95
2022-10-28T03:49:03.094Z,4.25
2022-10-28T03:51:29.710Z,5.50
2022-10-28T03:53:56.291Z,4.80
2022-10-28T03:56:22.879Z,5.10
2022-10-28T03:58:50.190Z,5.07
2022-10-28T04:01:16.943Z,5.63
2022-10-28T04:03:43.644Z,5.40
2022-10-28T04:06:10.326Z,5.15
2022-10-28T04:08:37.400Z,5.32
2022-10-28T04:11:04.090Z,4.90
2022-10-28T04:13:30.759Z,4.80
2022-10-28T04:15:57.590Z,5.07
2022-10-28T04:18:24.259Z,4.38
2022-10-28T04:20:50.827Z,4.45
2022-10-28T04:23:18.375Z,4.70
2022-10-28T04:25:45.150Z,4.63
2022-10-28T04:28:11.762Z,4.53
2022-10-28T04:30:38.453Z,4.22
2022-10-28T04:33:05.001Z,4.45
2022-10-28T04:35:31.652Z,4.85
2022-10-28T04:37:58.233Z,4.40
2022-10-28T04:40:24.822Z,4.57
2022-10-28T04:42:51.610Z,4.57
2022-10-28T04:45:18.481Z,4.28
2022-10-28T04:47:45.025Z,4.93
2022-10-28T04:50:11.678Z,4.40
2022-10-28T04:52:38.248Z,4.40
2022-10-28T04:55:05.291Z,4.72
2022-10-28T04:57:33.007Z,4.38
2022-10-28T04:59:59.580Z,5.18
2022-10-28T05:02:26.237Z,4.88
2022-10-28T05:04:52.947Z,4.93
2022-10-28T05:07:22.757Z,4.78
2022-10-28T05:09:50.239Z,4.47
2022-10-28T05:12:16.784Z,4.80
2022-10-28T05:14:43.409Z,4.65
2022-10-28T05:17:11.063Z,4.72
2022-10-28T05:19:37.829Z,4.78
2022-10-28T05:22:04.398Z,4.55
2022-10-28T05:24:31.000Z,4.70
2022-10-28T05:26:59.869Z,4.30
2022-10-28T05:29:30.877Z,5.30
2022-10-28T05:32:00.239Z,4.53
2022-10-28T05:34:26.846Z,4.30
2022-10-28T05:36:53.396Z,3.80
2022-10-28T05:39:20.023Z,4.70
2022-10-28T05:41:46.569Z,4.60
2022-10-28T05:44:13.151Z,4.40
2022-10-28T05:46:39.710Z,4.72
2022-10-28T05:49:06.268Z,4.80
2022-10-28T05:51:32.828Z,4.50
2022-10-28T05:53:59.379Z,4.32
2022-10-28T05:56:26.124Z,4.80
2022-10-28T05:58:52.712Z,4.65
2022-10-28T06:01:19.320Z,4.50
2022-10-28T06:03:45.909Z,4.80
2022-10-28T06:06:12.544Z,4.57
2022-10-28T06:08:39.104Z,4.75
2022-10-28T06:11:04.203Z,4.63
2022-10-28T06:13:30.755Z,4.40
2022-10-28T06:15:57.340Z,4.35
2022-10-28T06:18:23.995Z,4.55
2022-10-28T06:20:57.748Z,4.30
2022-10-28T06:23:25.526Z,4.30
2022-10-28T06:25:59.461Z,4.30
2022-10-28T06:28:26.899Z,4.03
2022-10-28T06:30:53.491Z,4.35
2022-10-28T06:33:20.075Z,4.05
2022-10-28T06:35:46.739Z,4.10
2022-10-28T06:38:13.281Z,4.40
2022-10-28T06:40:39.873Z,4.43
2022-10-28T06:43:12.493Z,4.15
2022-10-28T06:45:39.152Z,4.20
2022-10-28T06:48:07.576Z,3.85
2022-10-28T06:50:35.529Z,4.47
2022-10-28T06:53:02.635Z,4.40
2022-10-28T06:55:29.845Z,4.85
2022-10-28T06:58:01.161Z,4.10
2022-10-28T07:00:28.710Z,4.60
2022-10-28T07:02:55.943Z,4.72
2022-10-28T07:05:25.386Z,4.20
2022-10-28T07:07:52.285Z,4.38
2022-10-28T07:10:19.041Z,4.68
2022-10-28T07:12:45.649Z,4.45
2022-10-28T07:15:12.386Z,4.30
2022-10-28T07:17:39.028Z,4.70
2022-10-28T07:20:06.053Z,5.20
2022-10-28T07:22:32.618Z,4.57
2022-10-28T07:24:59.276Z,4.78
2022-10-28T07:27:25.874Z,4.78
2022-10-28T07:29:52.476Z,4.57
2022-10-28T07:32:19.031Z,4.13
2022-10-28T07:34:45.657Z,4.88
2022-10-28T07:37:12.811Z,4.30
2022-10-28T07:39:39.418Z,4.35
2022-10-28T07:42:06.104Z,4.70
2022-10-28T07:44:32.660Z,4.50
2022-10-28T07:46:59.242Z,4.75
2022-10-28T07:49:26.198Z,4.70
2022-10-28T07:51:53.234Z,4.30
2022-10-28T07:54:20.397Z,4.57
2022-10-28T07:56:48.030Z,4.45
2022-10-28T07:59:14.622Z,4.55
2022-10-28T08:01:41.334Z,4.32
2022-10-28T08:04:08.093Z,4.40
2022-10-28T08:06:35.702Z,4.22
2022-10-28T08:09:02.460Z,4.28
2022-10-28T08:11:29.384Z,3.95
2022-10-28T08:13:57.276Z,4.55
2022-10-28T08:16:23.891Z,3.90
2022-10-28T08:18:50.520Z,3.90
2022-10-28T08:21:17.338Z,4.10
2022-10-28T08:23:46.731Z,4.18
2022-10-28T08:26:15.217Z,4.07
2022-10-28T08:28:42.093Z,3.92
2022-10-28T08:31:10.045Z,3.75
2022-10-28T08:33:37.944Z,3.92
2022-10-28T08:36:05.140Z,4.00
2022-10-28T08:38:31.746Z,4.10
2022-10-28T08:41:15.958Z,3.90
2022-10-28T08:44:11.514Z,3.60
2022-10-28T08:46:40.922Z,3.80
2022-10-28T08:49:15.365Z,3.60
2022-10-28T08:52:03.335Z,3.60
2022-10-28T08:55:00.506Z,3.88
2022-10-28T08:57:38.860Z,3.90
2022-10-28T09:00:09.193Z,3.70
2022-10-28T09:03:15.515Z,3.47
2022-10-28T09:05:49.762Z,3.85
2022-10-28T09:08:23.589Z,3.92
2022-10-28T09:11:04.984Z,3.40
2022-10-28T09:14:08.045Z,3.33
2022-10-28T09:17:12.368Z,3.30
2022-10-28T09:19:44.754Z,4.10
2022-10-28T09:22:23.223Z,3.45
2022-10-28T09:25:03.517Z,3.33
2022-10-28T09:27:49.700Z,3.40
2022-10-28T09:30:29.308Z,3.70
2022-10-28T09:33:19.162Z,3.70
2022-10-28T09:35:48.663Z,3.97
2022-10-28T09:38:27.906Z,3.53
2022-10-28T09:41:33.705Z,4.03
2022-10-28T09:44:22.946Z,3.45
2022-10-28T09:46:55.148Z,4.15
2022-10-28T09:49:26.078Z,4.95
2022-10-28T09:52:05.065Z,4.63
2022-10-28T09:54:36.126Z,4.55
2022-10-28T09:57:04.106Z,6.28
2022-10-28T09:59:30.843Z,5.60
2022-10-28T10:01:57.655Z,4.20
2022-10-28T10:04:26.839Z,3.70
2022-10-28T10:07:10.647Z,3.90
2022-10-28T10:09:38.950Z,4.15
2022-10-28T10:12:08.867Z,4.80
2022-10-28T10:14:53.713Z,4.55
2022-10-28T10:17:29.612Z,3.88
2022-10-28T10:20:00.517Z,3.70
2022-10-28T10:22:38.670Z,4.05
2022-10-28T10:25:25.487Z,3.25
2022-10-28T10:28:01.524Z,3.30
2022-10-28T10:30:38.510Z,3.47
2022-10-28T10:33:08.078Z,3.45
2022-10-28T10:35:37.604Z,3.58
2022-10-28T10:38:06.578Z,3.50
2022-10-28T10:40:49.858Z,3.45
2022-10-28T10:43:35.446Z,3.42
2022-10-28T10:46:17.744Z,3.33
2022-10-28T10:48:45.001Z,3.00
2022-10-28T10:51:26.656Z,3.83
2022-10-28T10:54:01.737Z,3.22
2022-10-28T10:56:31.196Z,3.33
2022-10-28T10:59:02.726Z,3.03
2022-10-28T11:01:35.680Z,3.25
2022-10-28T11:04:06.298Z,3.20
2022-10-28T11:06:38.248Z,2.80
2022-10-28T11:11:44.580Z,3.05
2022-10-28T11:14:12.304Z,3.58
2022-10-28T11:16:56.598Z,3.45
2022-10-28T11:19:37.797Z,3.30
2022-10-28T11:22:19.328Z,3.37
2022-10-28T11:25:07.812Z,3.20
2022-10-28T11:27:57.617Z,3.55
2022-10-28T11:30:37.696Z,4.00
2022-10-28T11:33:30.459Z,2.90
2022-10-28T11:36:25.241Z,3.30
2022-10-28T11:39:17.502Z,3.65
2022-10-28T11:44:44.987Z,3.20
2022-10-28T11:47:37.543Z,3.15
2022-10-28T11:50:22.108Z,2.97
2022-10-28T11:53:33.396Z,2.90
2022-10-28T11:56:36.734Z,3.38
2022-10-28T11:59:09.411Z,3.42
2022-10-28T12:02:00.786Z,3.15
2022-10-28T12:04:52.203Z,2.80
2022-10-28T12:07:41.690Z,2.70
2022-10-28T12:10:34.862Z,2.65
2022-10-28T12:13:19.945Z,3.25
2022-10-28T12:15:52.176Z,3.10
2022-10-28T12:18:32.241Z,3.10
2022-10-28T12:21:17.751Z,3.20
2022-10-28T12:23:46.239Z,2.42
2022-10-28T12:26:17.795Z,2.65
2022-10-28T12:28:53.751Z,2.90
2022-10-28T12:31:28.586Z,2.90
2022-10-28T12:33:58.684Z,2.60
2022-10-28T12:36:39.201Z,2.40
2022-10-28T12:39:30.277Z,3.22
2022-10-28T12:42:09.640Z,2.58
2022-10-28T12:44:37.792Z,2.90
2022-10-28T12:47:24.302Z,2.63
2022-10-28T12:50:25.853Z,2.40
2022-10-28T12:52:58.858Z,1.97
2022-10-28T12:55:39.939Z,2.80
2022-10-28T12:58:15.846Z,2.65
2022-10-28T13:00:46.918Z,2.90
2022-10-28T13:03:14.905Z,3.40
2022-10-28T13:05:50.501Z,2.70
2022-10-28T13:08:29.424Z,2.35
2022-10-28T13:11:20.997Z,2.90
2022-10-28T13:13:56.703Z,3.20
2022-10-28T13:16:35.485Z,2.75
2022-10-28T13:19:32.814Z,3.10
2022-10-28T13:22:29.978Z,2.20
2022-10-28T13:25:05.409Z,3.10
2022-10-28T13:27:32.272Z,3.40
2022-10-28T13:30:00.428Z,2.85
2022-10-28T13:32:38.958Z,3.00
2022-10-28T13:35:22.612Z,2.63
2022-10-28T13:37:51.594Z,2.85
2022-10-28T13:40:30.608Z,2.75
2022-10-28T13:42:58.412Z,2.95
2022-10-28T13:45:44.874Z,2.28
2022-10-28T13:48:29.634Z,2.65
2022-10-28T13:51:11.300Z,2.80
2022-10-28T13:53:46.628Z,3.10
2022-10-28T13:56:25.207Z,3.08
2022-10-28T13:59:25.640Z,2.63
2022-10-28T14:02:07.372Z,2.65
2022-10-28T14:04:41.811Z,2.63
2022-10-28T14:07:11.349Z,3.28
2022-10-28T14:09:41.315Z,2.80
2022-10-28T14:12:22.207Z,3.00
2022-10-28T14:15:02.635Z,2.72
2022-10-28T14:17:40.477Z,2.92
2022-10-28T14:20:21.348Z,2.70
2022-10-28T14:22:48.416Z,2.97
2022-10-28T14:25:46.153Z,2.10
2022-10-28T14:28:28.223Z,2.97
2022-10-28T14:33:43.421Z,2.75
2022-10-28T14:36:21.812Z,2.83
2022-10-28T14:39:03.393Z,2.35
2022-10-28T14:42:00.326Z,2.55
2022-10-28T14:44:47.542Z,2.63
2022-10-28T14:47:39.498Z,2.80
2022-10-28T14:50:16.674Z,2.10
2022-10-28T14:52:44.570Z,2.83
2022-10-28T14:55:24.965Z,2.60
2022-10-28T14:57:51.829Z,2.60
2022-10-28T15:00:25.828Z,3.05
2022-10-28T15:02:53.900Z,2.83
2022-10-28T15:05:24.018Z,2.75
2022-10-28T15:07:51.210Z,3.05
2022-10-28T15:10:30.451Z,3.15
2022-10-28T15:12:58.776Z,2.83
2022-10-28T15:15:28.301Z,2.67
2022-10-28T15:17:55.583Z,2.88
2022-10-28T15:20:24.045Z,3.20
2022-10-28T15:22:51.666Z,2.78
2022-10-28T15:25:20.568Z,2.25
2022-10-28T15:27:50.882Z,2.42
2022-10-28T15:30:26.394Z,2.70
2022-10-28T15:32:54.555Z,3.08
2022-10-28T15:35:30.434Z,2.90
2022-10-28T15:38:00.869Z,2.90
2022-10-28T15:40:32.857Z,2.63
2022-10-28T15:45:31.463Z,2.40
2022-10-28T15:47:59.944Z,2.53
2022-10-28T15:50:32.020Z,2.60
2022-10-28T15:53:07.530Z,2.70
2022-10-28T15:55:41.461Z,2.63
2022-10-28T15:58:31.415Z,2.50
2022-10-28T16:00:58.760Z,2.85
2022-10-28T16:03:40.115Z,2.30
2022-10-28T16:06:20.075Z,2.70
2022-10-28T16:08:47.595Z,2.72
2022-10-28T16:11:18.622Z,2.75
2022-10-28T16:13:48.891Z,2.88
2022-10-28T16:16:25.072Z,2.67
2022-10-28T16:19:01.980Z,2.50
2022-10-28T16:21:28.694Z,2.33
2022-10-28T16:24:01.702Z,3.00
2022-10-28T16:26:30.776Z,2.67
2022-10-28T16:28:57.352Z,2.63
2022-10-28T16:31:27.207Z,2.95
2022-10-28T16:33:54.166Z,2.78
2022-10-28T16:36:20.801Z,3.20
2022-10-28T16:38:47.397Z,2.42
2022-10-28T16:41:17.625Z,2.80
2022-10-28T16:43:44.974Z,2.90
2022-10-28T16:46:12.889Z,2.58
2022-10-28T16:48:40.200Z,2.90
2022-10-28T16:51:13.862Z,2.72
2022-10-28T16:53:42.469Z,2.92
2022-10-28T16:56:13.583Z,2.75
2022-10-28T16:58:44.475Z,2.83
2022-10-28T17:01:11.747Z,2.90
2022-10-28T17:03:38.525Z,2.88
2022-10-28T17:06:05.337Z,2.50
2022-10-28T17:09:00.764Z,3.08
2022-10-28T17:11:18.720Z,2.85
2022-10-28T17:13:45.406Z,3.00
2022-10-28T17:16:12.808Z,2.70
2022-10-28T17:18:40.040Z,2.72
2022-10-28T17:21:06.623Z,2.83
2022-10-28T17:23:33.165Z,2.85
2022-10-28T17:26:02.533Z,3.03
2022-10-28T17:28:29.229Z,3.05
2022-10-28T17:31:05.773Z,2.70
2022-10-28T17:33:32.590Z,3.00
2022-10-28T17:36:03.339Z,2.67
2022-10-28T17:38:30.177Z,3.38
2022-10-28T17:40:57.679Z,3.15
2022-10-28T17:43:24.542Z,3.17
2022-10-28T17:45:51.254Z,3.10
2022-10-28T17:48:17.905Z,3.20
2022-10-28T17:50:45.089Z,2.95
2022-10-28T17:53:11.743Z,3.40
2022-10-28T17:55:38.512Z,3.13
2022-10-28T17:58:05.194Z,3.10
2022-10-28T18:00:31.790Z,3.50
2022-10-28T18:02:58.564Z,3.47
2022-10-28T18:05:25.253Z,2.88
2022-10-28T18:07:55.230Z,3.55
2022-10-28T18:10:22.038Z,3.03
2022-10-28T18:12:51.261Z,3.13
2022-10-28T18:15:17.910Z,3.00
2022-10-28T18:17:50.133Z,2.47
2022-10-28T18:20:17.933Z,2.90
2022-10-28T18:22:44.474Z,2.65
2022-10-28T18:25:11.054Z,2.72
2022-10-28T18:27:38.293Z,3.08
2022-10-28T18:30:05.449Z,3.15
2022-10-28T18:32:32.715Z,2.97
2022-10-28T18:34:59.473Z,2.88
2022-10-28T18:37:28.293Z,2.80
2022-10-28T18:39:54.834Z,3.50
2022-10-28T18:42:22.069Z,3.05
2022-10-28T18:44:49.036Z,2.97
2022-10-28T18:47:15.614Z,3.00
2022-10-28T18:49:45.301Z,3.05
2022-10-28T18:52:11.838Z,3.00
2022-10-28T18:54:38.414Z,3.30
2022-10-28T18:57:04.994Z,3.13
2022-10-28T18:59:31.567Z,2.97
2022-10-28T19:01:58.469Z,2.95
2022-10-28T19:04:25.227Z,3.25
2022-10-28T19:06:51.866Z,3.17
2022-10-28T19:09:18.438Z,3.22
2022-10-28T19:11:45.012Z,2.78
2022-10-28T19:14:11.615Z,3.13
2022-10-28T19:16:38.296Z,3.22
2022-10-28T19:19:05.643Z,3.30
2022-10-28T19:21:33.085Z,3.05
2022-10-28T19:24:01.211Z,2.97
2022-10-28T19:26:28.179Z,3.22
2022-10-28T19:28:54.769Z,3.25
2022-10-28T19:31:25.225Z,3.17
2022-10-28T19:33:53.076Z,2.92
2022-10-28T19:36:24.546Z,2.65
2022-10-28T19:38:55.411Z,3.20
2022-10-28T19:41:27.307Z,3.30
2022-10-28T19:43:59.095Z,3.15
2022-10-28T19:46:33.829Z,3.60
2022-10-28T19:49:03.050Z,3.03
2022-10-28T19:51:32.122Z,3.65
2022-10-28T19:54:00.700Z,3.15
2022-10-28T19:56:28.776Z,3.22
2022-10-28T19:58:57.834Z,3.15
2022-10-28T20:01:26.501Z,2.60
2022-10-28T20:03:54.790Z,2.67
2022-10-28T20:06:26.514Z,2.80
2022-10-28T20:08:53.446Z,2.95
2022-10-28T20:11:26.228Z,2.60
2022-10-28T20:13:58.468Z,2.80
2022-10-28T20:16:25.592Z,3.00
2022-10-28T20:18:53.974Z,2.97
2022-10-28T20:21:22.058Z,3.72
2022-10-28T20:26:18.083Z,3.28
2022-10-28T20:28:44.657Z,2.75
2022-10-28T20:31:16.836Z,3.08
2022-10-28T20:36:39.163Z,3.22
2022-10-28T20:39:17.749Z,3.33
2022-10-28T20:41:46.258Z,3.42
2022-10-28T20:44:13.074Z,3.15
2022-10-28T20:46:40.152Z,3.20
2022-10-28T20:49:08.582Z,3.17
2022-10-28T20:51:35.906Z,3.70
2022-10-28T20:54:03.028Z,3.25
2022-10-28T20:56:36.045Z,3.10
2022-10-28T20:59:03.133Z,2.90
2022-10-28T21:01:35.403Z,3.45
2022-10-28T21:04:05.090Z,3.03
2022-10-28T21:06:31.990Z,3.30
2022-10-28T21:09:00.049Z,3.33
2022-10-28T21:11:28.288Z,3.78
2022-10-28T21:14:00.623Z,3.60
2022-10-28T21:16:30.696Z,3.95
2022-10-28T21:18:59.009Z,3.75
2022-10-28T21:21:25.989Z,3.83
2022-10-28T21:23:52.581Z,3.50
2022-10-28T21:26:19.430Z,3.65
2022-10-28T21:28:50.274Z,3.22
2022-10-28T21:31:18.146Z,3.45
2022-10-28T21:33:45.393Z,3.22
2022-10-28T21:36:17.954Z,3.47
2022-10-28T21:38:44.985Z,3.60
2022-10-28T21:41:12.479Z,3.08
2022-10-28T21:43:41.678Z,3.70
2022-10-28T21:46:08.938Z,3.40
2022-10-28T21:48:37.148Z,3.20
2022-10-28T21:51:09.868Z,3.72
2022-10-28T21:53:42.134Z,3.95
2022-10-28T21:56:16.505Z,4.10
2022-10-28T21:58:44.355Z,4.32
2022-10-28T22:01:20.052Z,3.80
2022-10-28T22:03:47.183Z,3.90
2022-10-28T22:06:14.461Z,4.22
2022-10-28T22:08:41.298Z,4.22
2022-10-28T22:11:13.219Z,4.30
2022-10-28T22:13:40.157Z,4.28
2022-10-28T22:16:10.396Z,3.90
2022-10-28T22:18:37.913Z,3.70
2022-10-28T22:21:13.260Z,3.50
2022-10-28T22:23:40.321Z,3.05
2022-10-28T22:26:12.510Z,3.10
2022-10-28T22:31:11.536Z,2.85
2022-10-28T22:33:38.586Z,2.80
2022-10-28T22:36:07.515Z,2.95
2022-10-28T22:38:34.318Z,3.50
2022-10-28T22:41:12.833Z,3.42
2022-10-28T22:43:40.577Z,3.50
2022-10-28T22:46:07.698Z,3.50
2022-10-28T22:48:34.265Z,3.28
2022-10-28T22:51:01.593Z,3.60
2022-10-28T22:53:28.329Z,4.00
2022-10-28T22:55:56.150Z,3.17
2022-10-28T22:58:23.931Z,3.15
2022-10-28T23:00:50.982Z,3.00
2022-10-28T23:03:17.986Z,2.58
2022-10-28T23:05:44.692Z,2.13
2022-10-28T23:08:15.327Z,2.40
2022-10-28T23:10:41.933Z,2.40
2022-10-28T23:13:11.817Z,2.20
2022-10-28T23:15:38.449Z,2.17
2022-10-28T23:18:05.044Z,2.97
2022-10-28T23:20:31.604Z,3.58
2022-10-28T23:22:58.205Z,2.95
2022-10-28T23:25:24.943Z,3.10
2022-10-28T23:27:51.566Z,3.35
2022-10-28T23:30:18.212Z,3.20
2022-10-28T23:32:44.804Z,2.97
2022-10-28T23:35:11.529Z,3.22
2022-10-28T23:37:38.110Z,3.13
2022-10-28T23:40:06.372Z,3.20
2022-10-28T23:42:32.973Z,2.90
2022-10-28T23:44:59.629Z,2.80
2022-10-28T23:47:26.211Z,2.70
2022-10-28T23:49:52.914Z,3.00
2022-10-28T23:52:19.508Z,2.70
2022-10-28T23:54:46.105Z,2.70
2022-10-28T23:57:12.819Z,2.30
2022-10-28T23:59:39.422Z,2.15
